createdAt,value
2019-02-23T00:01:26.270Z,99.90
2019-02-23T00:03:57.084Z,99.90
2019-02-23T00:06:30.106Z,99.90
2019-02-23T00:08:59.863Z,99.90
2019-02-23T00:11:30.869Z,99.90
2019-02-23T00:14:01.317Z,99.90
2019-02-23T00:16:31.864Z,99.90
2019-02-23T00:19:02.594Z,99.90
2019-02-23T00:21:33.145Z,99.90
2019-02-23T00:24:03.662Z,99.90
2019-02-23T00:26:34.159Z,99.90
2019-02-23T00:29:04.655Z,99.90
2019-02-23T00:31:35.269Z,99.90
2019-02-23T00:34:06.240Z,99.90
2019-02-23T00:36:36.900Z,99.90
2019-02-23T00:39:07.848Z,99.90
2019-02-23T00:41:38.669Z,99.90
2019-02-23T00:44:09.139Z,99.90
2019-02-23T00:46:39.724Z,99.90
2019-02-23T00:49:10.416Z,99.90
2019-02-23T00:51:41.004Z,99.90
2019-02-23T00:54:11.399Z,99.90
2019-02-23T00:56:42.095Z,99.90
2019-02-23T00:59:12.641Z,99.90
2019-02-23T01:01:43.119Z,99.90
2019-02-23T01:04:13.879Z,99.90
2019-02-23T01:06:44.474Z,99.90
2019-02-23T01:09:15.064Z,99.90
2019-02-23T01:11:45.574Z,99.90
2019-02-23T01:14:16.153Z,99.90
2019-02-23T01:16:46.562Z,99.90
2019-02-23T01:19:17.013Z,99.90
2019-02-23T01:21:47.569Z,99.90
2019-02-23T01:24:18.143Z,99.90
2019-02-23T01:26:48.918Z,99.90
2019-02-23T01:29:19.319Z,99.90
2019-02-23T01:31:50.088Z,99.90
2019-02-23T01:34:20.720Z,99.90
2019-02-23T01:36:51.078Z,99.90
2019-02-23T01:39:21.519Z,99.90
2019-02-23T01:41:51.939Z,99.90
2019-02-23T01:44:22.438Z,99.90
2019-02-23T01:46:52.819Z,99.90
2019-02-23T01:49:23.719Z,99.90
2019-02-23T01:51:54.284Z,99.90
2019-02-23T01:54:24.974Z,99.90
2019-02-23T01:56:55.819Z,99.90
2019-02-23T01:59:26.164Z,99.90
2019-02-23T02:01:56.679Z,99.90
2019-02-23T02:04:27.338Z,99.90
2019-02-23T02:06:57.944Z,99.90
2019-02-23T02:09:28.479Z,99.90
2019-02-23T02:11:59.329Z,99.90
2019-02-23T02:14:29.974Z,99.90
2019-02-23T02:17:00.433Z,99.90
2019-02-23T02:19:31.159Z,99.90
2019-02-23T02:22:01.664Z,99.90
2019-02-23T02:24:32.063Z,99.90
2019-02-23T02:27:02.710Z,99.90
2019-02-23T02:29:33.169Z,99.90
2019-02-23T02:32:03.620Z,99.90
2019-02-23T02:34:34.134Z,99.90
2019-02-23T02:37:04.686Z,99.90
2019-02-23T02:39:35.147Z,99.90
2019-02-23T02:42:05.694Z,99.90
2019-02-23T02:44:35.963Z,99.90
2019-02-23T02:47:06.324Z,99.90
2019-02-23T02:49:37.118Z,99.90
2019-02-23T02:52:07.854Z,99.90
2019-02-23T02:54:38.319Z,99.90
2019-02-23T02:57:08.905Z,99.90
2019-02-23T02:59:39.305Z,99.90
2019-02-23T03:02:09.748Z,99.90
2019-02-23T03:04:40.242Z,99.90
2019-02-23T03:07:10.859Z,99.90
2019-02-23T03:09:41.394Z,99.90
2019-02-23T03:12:12.165Z,99.90
2019-02-23T03:14:42.726Z,99.90
2019-02-23T03:17:13.151Z,99.90
2019-02-23T03:19:43.994Z,99.90
2019-02-23T03:22:14.375Z,99.90
2019-02-23T03:24:44.798Z,99.90
2019-02-23T03:27:15.195Z,99.90
2019-02-23T03:29:45.575Z,99.90
2019-02-23T03:32:16.075Z,99.90
2019-02-23T03:34:47.179Z,99.90
2019-02-23T03:37:17.414Z,99.90
2019-02-23T03:39:47.784Z,99.90
2019-02-23T03:42:18.548Z,99.90
2019-02-23T03:44:48.966Z,99.90
2019-02-23T03:47:19.338Z,99.90
2019-02-23T03:49:50.083Z,99.90
2019-02-23T03:52:20.610Z,99.90
2019-02-23T03:54:51.306Z,99.90
2019-02-23T03:57:21.864Z,99.90
2019-02-23T03:59:52.317Z,99.90
2019-02-23T04:02:22.799Z,99.90
2019-02-23T04:04:53.348Z,99.90
2019-02-23T04:07:23.809Z,99.90
2019-02-23T04:09:54.270Z,99.90
2019-02-23T04:12:24.739Z,99.90
2019-02-23T04:14:55.187Z,99.90
2019-02-23T04:17:25.556Z,99.90
2019-02-23T04:19:56.029Z,99.90
2019-02-23T04:22:26.408Z,99.90
2019-02-23T04:24:56.908Z,99.90
2019-02-23T04:27:27.670Z,99.90
2019-02-23T04:29:58.174Z,99.90
2019-02-23T04:32:28.605Z,99.90
2019-02-23T04:34:59.462Z,99.90
2019-02-23T04:37:29.909Z,99.90
2019-02-23T04:40:00.526Z,99.90
2019-02-23T04:42:31.145Z,99.90
2019-02-23T04:45:01.663Z,99.90
2019-02-23T04:47:32.200Z,99.90
2019-02-23T04:50:02.845Z,99.90
2019-02-23T04:52:33.214Z,99.90
2019-02-23T04:55:03.721Z,99.90
2019-02-23T04:57:34.301Z,99.90
2019-02-23T05:00:05.110Z,99.90
2019-02-23T05:02:35.550Z,99.90
2019-02-23T05:05:06.404Z,99.90
2019-02-23T05:07:36.933Z,99.90
2019-02-23T05:10:07.664Z,99.90
2019-02-23T05:12:38.424Z,99.90
2019-02-23T05:15:09.549Z,99.90
2019-02-23T05:17:39.968Z,99.90
2019-02-23T05:20:10.543Z,99.90
2019-02-23T05:22:41.016Z,99.90
2019-02-23T05:25:11.463Z,99.90
2019-02-23T05:27:41.908Z,99.90
2019-02-23T05:30:12.451Z,99.90
2019-02-23T05:32:42.874Z,99.90
2019-02-23T05:35:13.734Z,99.90
2019-02-23T05:37:44.114Z,99.90
2019-02-23T05:40:14.506Z,99.90
2019-02-23T05:42:45.349Z,99.90
2019-02-23T05:45:15.648Z,99.90
2019-02-23T05:47:46.004Z,99.90
2019-02-23T05:50:16.574Z,99.90
2019-02-23T05:52:47.238Z,99.90
2019-02-23T05:55:17.729Z,99.90
2019-02-23T05:57:48.268Z,99.90
2019-02-23T06:00:18.745Z,99.90
2019-02-23T06:02:48.979Z,99.90
2019-02-23T06:05:20.138Z,99.90
2019-02-23T06:07:50.683Z,99.90
2019-02-23T06:10:21.078Z,99.90
2019-02-23T06:12:51.554Z,99.90
2019-02-23T06:15:22.024Z,99.90
2019-02-23T06:17:52.434Z,99.90
2019-02-23T06:20:23.183Z,99.90
2019-02-23T06:22:53.544Z,99.90
2019-02-23T06:25:24.325Z,99.90
2019-02-23T06:27:55.078Z,99.90
2019-02-23T06:30:25.574Z,99.90
2019-02-23T06:32:56.016Z,99.90
2019-02-23T06:35:26.714Z,99.90
2019-02-23T06:37:57.170Z,99.90
2019-02-23T06:40:27.769Z,99.90
2019-02-23T06:42:58.599Z,99.90
2019-02-23T06:45:29.163Z,99.90
2019-02-23T06:47:59.719Z,99.90
2019-02-23T06:50:30.434Z,99.90
2019-02-23T06:53:00.950Z,99.90
2019-02-23T06:55:31.351Z,99.90
2019-02-23T06:58:02.309Z,99.90
2019-02-23T07:00:32.733Z,99.90
2019-02-23T07:03:03.105Z,99.90
2019-02-23T07:05:33.884Z,99.90
2019-02-23T07:08:04.381Z,99.90
2019-02-23T07:10:34.825Z,99.90
2019-02-23T07:13:05.680Z,99.90
2019-02-23T07:15:36.179Z,99.90
2019-02-23T07:18:06.614Z,99.90
2019-02-23T07:20:44.285Z,99.90
2019-02-23T07:23:10.722Z,99.90
2019-02-23T07:25:41.098Z,99.90
2019-02-23T07:28:11.824Z,99.90
2019-02-23T07:30:42.194Z,99.90
2019-02-23T07:33:12.673Z,99.90
2019-02-23T07:35:43.269Z,99.90
2019-02-23T07:38:13.810Z,99.90
2019-02-23T07:40:44.335Z,99.90
2019-02-23T07:43:14.814Z,99.90
2019-02-23T07:45:45.434Z,99.90
2019-02-23T07:48:15.909Z,99.90
2019-02-23T07:50:46.724Z,99.90
2019-02-23T07:53:17.219Z,99.90
2019-02-23T07:55:47.686Z,99.90
2019-02-23T07:58:18.254Z,99.90
2019-02-23T08:00:48.719Z,99.90
2019-02-23T08:03:19.219Z,99.90
2019-02-23T08:05:49.987Z,99.90
2019-02-23T08:08:20.535Z,99.90
2019-02-23T08:10:51.010Z,99.90
2019-02-23T08:13:21.519Z,99.90
2019-02-23T08:15:52.105Z,99.90
2019-02-23T08:18:22.769Z,99.90
2019-02-23T08:20:53.328Z,99.90
2019-02-23T08:23:24.071Z,99.90
2019-02-23T08:25:55.099Z,99.90
2019-02-23T08:28:25.750Z,99.90
2019-02-23T08:30:56.564Z,99.90
2019-02-23T08:33:27.259Z,99.90
2019-02-23T08:35:57.824Z,99.90
2019-02-23T08:38:28.544Z,99.90
2019-02-23T08:40:59.020Z,99.90
2019-02-23T08:43:29.594Z,99.90
2019-02-23T08:46:00.085Z,99.90
2019-02-23T08:48:30.579Z,99.90
2019-02-23T08:51:01.135Z,99.90
2019-02-23T08:53:31.748Z,99.90
2019-02-23T08:56:02.134Z,99.90
2019-02-23T08:58:32.924Z,99.90
2019-02-23T09:01:03.480Z,99.90
2019-02-23T09:03:33.909Z,99.90
2019-02-23T09:06:04.734Z,99.90
2019-02-23T09:08:35.157Z,99.90
2019-02-23T09:11:06.099Z,99.90
2019-02-23T09:13:36.614Z,99.90
2019-02-23T09:16:07.019Z,99.90
2019-02-23T09:18:37.434Z,99.90
2019-02-23T09:21:07.980Z,99.90
2019-02-23T09:23:38.424Z,99.90
2019-02-23T09:26:08.794Z,99.90
2019-02-23T09:28:39.224Z,99.90
2019-02-23T09:31:09.840Z,99.90
2019-02-23T09:33:40.399Z,99.90
2019-02-23T09:36:11.136Z,99.90
2019-02-23T09:38:41.579Z,99.90
2019-02-23T09:41:12.079Z,99.90
2019-02-23T09:43:42.704Z,99.90
2019-02-23T09:46:13.179Z,99.90
2019-02-23T09:48:43.729Z,99.90
2019-02-23T09:51:14.395Z,99.90
2019-02-23T09:53:44.990Z,99.60
2019-02-23T09:56:15.614Z,98.80
2019-02-23T09:58:46.334Z,98.00
2019-02-23T10:01:17.374Z,96.20
2019-02-23T10:03:47.924Z,95.00
2019-02-23T10:06:18.429Z,93.30
2019-02-23T10:08:49.264Z,94.00
2019-02-23T10:11:19.884Z,93.50
2019-02-23T10:13:50.340Z,92.20
2019-02-23T10:16:21.170Z,92.40
2019-02-23T10:18:51.766Z,92.10
2019-02-23T10:21:22.268Z,91.20
2019-02-23T10:23:53.009Z,91.00
2019-02-23T10:26:23.509Z,91.70
2019-02-23T10:28:54.039Z,90.90
2019-02-23T10:31:25.076Z,90.60
2019-02-23T10:33:55.565Z,90.40
2019-02-23T10:36:26.069Z,90.70
2019-02-23T10:38:56.584Z,90.80
2019-02-23T10:41:26.944Z,90.40
2019-02-23T10:43:57.389Z,86.40
2019-02-23T10:46:27.999Z,89.70
2019-02-23T10:48:58.391Z,88.70
2019-02-23T10:51:28.829Z,90.50
2019-02-23T10:54:00.964Z,90.00
2019-02-23T10:56:31.554Z,90.40
2019-02-23T10:59:02.419Z,89.90
2019-02-23T11:01:33.114Z,90.30
2019-02-23T11:04:03.644Z,88.40
2019-02-23T11:06:34.188Z,88.20
2019-02-23T11:09:04.849Z,86.40
2019-02-23T11:11:35.549Z,84.10
2019-02-23T11:14:06.519Z,86.20
2019-02-23T11:16:37.259Z,80.80
2019-02-23T11:19:07.763Z,81.40
2019-02-23T11:21:38.189Z,79.40
2019-02-23T11:24:08.739Z,82.70
2019-02-23T11:26:39.295Z,79.10
2019-02-23T11:29:09.818Z,76.70
2019-02-23T11:31:40.494Z,73.20
2019-02-23T11:34:11.034Z,72.20
2019-02-23T11:36:41.544Z,72.90
2019-02-23T11:39:12.856Z,70.40
2019-02-23T11:41:43.505Z,67.50
2019-02-23T11:44:14.149Z,67.90
2019-02-23T11:46:59.270Z,68.40
2019-02-23T11:49:17.119Z,65.50
2019-02-23T11:51:47.845Z,63.00
2019-02-23T11:54:18.810Z,65.20
2019-02-23T11:56:49.342Z,64.80
2019-02-23T11:59:20.044Z,64.40
2019-02-23T12:01:50.984Z,63.80
2019-02-23T12:04:21.636Z,65.10
2019-02-23T12:06:52.469Z,62.00
2019-02-23T12:09:23.324Z,60.40
2019-02-23T12:11:53.949Z,60.40
2019-02-23T12:14:25.943Z,60.90
2019-02-23T12:16:56.804Z,60.20
2019-02-23T12:19:27.384Z,58.80
2019-02-23T12:22:11.968Z,58.80
2019-02-23T12:24:36.274Z,60.70
2019-02-23T12:27:07.774Z,58.30
2019-02-23T12:29:38.579Z,58.80
2019-02-23T12:32:09.060Z,57.50
2019-02-23T12:34:39.925Z,58.80
2019-02-23T12:37:11.130Z,58.30
2019-02-23T12:39:43.709Z,59.60
2019-02-23T12:42:15.413Z,59.70
2019-02-23T12:44:46.190Z,57.60
2019-02-23T12:47:17.294Z,58.00
2019-02-23T12:49:48.059Z,58.30
2019-02-23T12:52:21.550Z,56.90
2019-02-23T12:54:52.029Z,57.60
2019-02-23T12:57:22.684Z,57.10
2019-02-23T12:59:53.134Z,57.30
2019-02-23T13:02:23.875Z,57.40
2019-02-23T13:04:54.764Z,57.60
2019-02-23T13:07:25.676Z,57.00
2019-02-23T13:09:57.239Z,56.50
2019-02-23T13:13:04.199Z,56.50
2019-02-23T13:16:00.289Z,56.90
2019-02-23T13:18:54.364Z,56.30
2019-02-23T13:21:32.174Z,57.20
2019-02-23T13:24:28.325Z,55.40
2019-02-23T13:27:53.674Z,56.30
2019-02-23T13:31:09.409Z,57.20
2019-02-23T13:34:11.956Z,57.40
2019-02-23T13:37:28.954Z,58.50
2019-02-23T13:40:29.819Z,59.00
2019-02-23T13:43:11.603Z,58.40
2019-02-23T13:46:26.537Z,56.50
2019-02-23T13:49:33.510Z,56.10
2019-02-23T13:52:38.469Z,56.80
2019-02-23T13:55:38.124Z,55.10
2019-02-23T13:58:19.014Z,54.90
2019-02-23T14:01:35.729Z,54.10
2019-02-23T14:04:29.584Z,54.10
2019-02-23T14:07:24.041Z,54.20
2019-02-23T14:10:36.924Z,53.70
2019-02-23T14:13:48.419Z,53.40
2019-02-23T14:16:56.874Z,52.70
2019-02-23T14:19:53.774Z,51.10
2019-02-23T14:22:59.505Z,51.90
2019-02-23T14:26:10.699Z,51.00
2019-02-23T14:28:55.084Z,52.00
2019-02-23T14:31:52.329Z,51.60
2019-02-23T14:35:11.199Z,50.50
2019-02-23T14:38:23.654Z,52.50
2019-02-23T14:41:32.064Z,49.30
2019-02-23T14:44:28.866Z,48.40
2019-02-23T14:47:11.922Z,50.30
2019-02-23T14:50:09.749Z,50.00
2019-02-23T14:53:10.634Z,50.50
2019-02-23T14:56:00.784Z,49.40
2019-02-23T14:59:10.924Z,48.60
2019-02-23T15:02:02.335Z,48.40
2019-02-23T15:04:55.794Z,48.90
2019-02-23T15:07:50.789Z,47.20
2019-02-23T15:10:54.074Z,46.90
2019-02-23T15:14:08.113Z,46.90
2019-02-23T15:16:59.380Z,45.90
2019-02-23T15:20:08.613Z,47.30
2019-02-23T15:23:08.914Z,47.10
2019-02-23T15:26:20.924Z,46.00
2019-02-23T15:29:33.425Z,46.90
2019-02-23T15:32:47.569Z,45.20
2019-02-23T15:36:12.204Z,44.40
2019-02-23T15:39:36.306Z,43.40
2019-02-23T15:42:26.826Z,43.10
2019-02-23T15:45:33.488Z,43.20
2019-02-23T15:48:43.050Z,42.70
2019-02-23T15:51:13.628Z,41.00
2019-02-23T15:53:44.231Z,42.60
2019-02-23T15:56:14.915Z,42.80
2019-02-23T15:58:45.418Z,41.70
2019-02-23T16:01:15.959Z,43.20
2019-02-23T16:03:46.604Z,42.50
2019-02-23T16:06:17.230Z,43.10
2019-02-23T16:08:47.861Z,43.00
2019-02-23T16:11:18.759Z,43.50
2019-02-23T16:13:49.245Z,44.20
2019-02-23T16:16:19.673Z,43.00
2019-02-23T16:18:50.596Z,42.90
2019-02-23T16:21:21.146Z,41.80
2019-02-23T16:23:51.789Z,42.20
2019-02-23T16:26:22.729Z,41.10
2019-02-23T16:28:55.764Z,41.20
2019-02-23T16:31:25.594Z,42.20
2019-02-23T16:33:56.389Z,43.90
2019-02-23T16:36:26.869Z,45.10
2019-02-23T16:38:57.448Z,46.50
2019-02-23T16:41:28.089Z,48.40
2019-02-23T16:43:58.589Z,51.20
2019-02-23T16:46:29.334Z,52.40
2019-02-23T16:49:00.201Z,52.80
2019-02-23T16:51:31.079Z,54.90
2019-02-23T16:54:01.666Z,57.00
2019-02-23T16:56:32.410Z,58.90
2019-02-23T16:59:03.134Z,60.10
2019-02-23T17:01:33.884Z,62.00
2019-02-23T17:04:04.570Z,64.10
2019-02-23T17:06:35.084Z,64.70
2019-02-23T17:09:06.035Z,66.40
2019-02-23T17:11:36.732Z,67.70
2019-02-23T17:14:07.355Z,69.60
2019-02-23T17:16:37.929Z,71.00
2019-02-23T17:19:08.519Z,70.80
2019-02-23T17:21:39.121Z,72.50
2019-02-23T17:24:09.681Z,73.40
2019-02-23T17:26:43.400Z,74.80
2019-02-23T17:29:15.739Z,76.60
2019-02-23T17:31:49.894Z,78.20
2019-02-23T17:34:21.441Z,79.30
2019-02-23T17:36:52.813Z,79.40
2019-02-23T17:39:23.439Z,79.60
2019-02-23T17:41:54.288Z,79.80
2019-02-23T17:44:25.244Z,81.50
2019-02-23T17:46:56.131Z,82.00
2019-02-23T17:49:27.494Z,81.30
2019-02-23T17:51:58.925Z,83.40
2019-02-23T17:54:30.289Z,85.00
2019-02-23T17:57:01.359Z,87.70
2019-02-23T17:59:41.754Z,84.70
2019-02-23T18:02:18.279Z,84.80
2019-02-23T18:04:55.039Z,86.70
2019-02-23T18:07:25.979Z,87.80
2019-02-23T18:09:57.029Z,86.80
2019-02-23T18:12:29.818Z,86.50
2019-02-23T18:15:01.715Z,88.10
2019-02-23T18:17:32.603Z,87.20
2019-02-23T18:20:03.449Z,87.80
2019-02-23T18:22:34.253Z,88.60
2019-02-23T18:25:05.224Z,90.50
2019-02-23T18:27:36.144Z,90.50
2019-02-23T18:30:12.357Z,89.80
2019-02-23T18:32:49.359Z,91.50
2019-02-23T18:35:21.424Z,91.30
2019-02-23T18:37:52.644Z,91.30
2019-02-23T18:40:23.499Z,91.80
2019-02-23T18:42:54.341Z,92.20
2019-02-23T18:45:25.959Z,92.70
2019-02-23T18:47:58.879Z,93.30
2019-02-23T18:50:32.788Z,92.80
2019-02-23T18:53:06.194Z,92.60
2019-02-23T18:55:59.102Z,92.70
2019-02-23T18:58:33.374Z,92.70
2019-02-23T19:01:04.743Z,92.40
2019-02-23T19:03:35.959Z,92.80
2019-02-23T19:06:10.164Z,93.30
2019-02-23T19:08:44.559Z,92.90
2019-02-23T19:11:16.121Z,93.10
2019-02-23T19:13:48.354Z,93.10
2019-02-23T19:16:19.509Z,93.30
2019-02-23T19:18:50.974Z,93.60
2019-02-23T19:21:23.679Z,93.70
2019-02-23T19:23:54.344Z,94.10
2019-02-23T19:26:25.439Z,94.30
2019-02-23T19:28:57.310Z,94.30
2019-02-23T19:31:28.889Z,94.20
2019-02-23T19:34:08.103Z,93.70
2019-02-23T19:36:39.693Z,94.60
2019-02-23T19:39:10.665Z,94.90
2019-02-23T19:41:47.280Z,94.80
2019-02-23T19:44:22.506Z,94.50
2019-02-23T19:47:00.099Z,94.40
2019-02-23T19:49:34.360Z,94.10
2019-02-23T19:52:06.059Z,93.60
2019-02-23T19:54:37.545Z,93.50
2019-02-23T19:57:09.479Z,93.70
2019-02-23T19:59:40.399Z,94.00
2019-02-23T20:02:11.530Z,94.00
2019-02-23T20:04:44.705Z,94.00
2019-02-23T20:07:18.272Z,94.00
2019-02-23T20:10:08.830Z,93.90
2019-02-23T20:12:43.519Z,95.40
2019-02-23T20:15:16.649Z,95.30
2019-02-23T20:18:07.474Z,94.80
2019-02-23T20:20:48.252Z,95.90
2019-02-23T20:23:23.297Z,95.20
2019-02-23T20:26:00.986Z,95.10
2019-02-23T20:28:36.335Z,95.90
2019-02-23T20:31:15.770Z,95.70
2019-02-23T20:33:48.394Z,96.60
2019-02-23T20:36:20.363Z,96.70
2019-02-23T20:39:00.427Z,96.80
2019-02-23T20:41:35.919Z,96.80
2019-02-23T20:44:10.884Z,96.90
2019-02-23T20:46:48.094Z,97.20
2019-02-23T20:49:19.049Z,97.30
2019-02-23T20:51:52.209Z,97.50
2019-02-23T20:54:30.734Z,98.40
2019-02-23T20:57:05.155Z,98.40
2019-02-23T20:59:35.844Z,98.40
2019-02-23T21:02:08.781Z,98.10
2019-02-23T21:04:42.543Z,99.20
2019-02-23T21:07:15.015Z,99.40
2019-02-23T21:09:47.626Z,98.80
2019-02-23T21:12:20.272Z,98.70
2019-02-23T21:15:03.414Z,99.20
2019-02-23T21:17:34.805Z,99.30
2019-02-23T21:20:05.747Z,99.30
2019-02-23T21:22:37.053Z,99.40
2019-02-23T21:25:09.925Z,99.20
2019-02-23T21:27:44.305Z,99.80
2019-02-23T21:30:21.995Z,99.50
2019-02-23T21:33:18.435Z,99.90
2019-02-23T21:35:59.739Z,99.90
2019-02-23T21:38:31.794Z,99.90
2019-02-23T21:41:04.869Z,99.90
2019-02-23T21:43:35.665Z,99.90
2019-02-23T21:46:06.424Z,99.90
2019-02-23T21:48:37.104Z,99.90
2019-02-23T21:51:08.434Z,99.90
2019-02-23T21:53:38.940Z,99.90
2019-02-23T21:56:09.506Z,99.90
2019-02-23T21:58:40.273Z,99.90
2019-02-23T22:01:11.109Z,99.90
2019-02-23T22:03:41.995Z,99.90
2019-02-23T22:06:12.929Z,99.90
2019-02-23T22:08:43.519Z,99.90
2019-02-23T22:11:14.020Z,99.90
2019-02-23T22:13:44.881Z,99.90
2019-02-23T22:16:15.533Z,99.90
2019-02-23T22:18:46.193Z,99.90
2019-02-23T22:21:17.352Z,99.90
2019-02-23T22:23:47.934Z,99.90
2019-02-23T22:26:18.695Z,99.90
2019-02-23T22:28:49.874Z,99.90
2019-02-23T22:31:20.629Z,99.90
2019-02-23T22:33:51.434Z,99.90
2019-02-23T22:36:22.380Z,99.90
2019-02-23T22:38:53.154Z,99.90
2019-02-23T22:41:23.891Z,99.90
2019-02-23T22:43:54.794Z,99.90
2019-02-23T22:46:25.379Z,99.90
2019-02-23T22:48:56.599Z,99.90
2019-02-23T22:51:27.274Z,99.90
2019-02-23T22:53:57.987Z,99.90
2019-02-23T22:56:28.795Z,99.90
2019-02-23T22:58:59.459Z,99.90
2019-02-23T23:01:30.154Z,99.90
2019-02-23T23:04:00.564Z,99.90
2019-02-23T23:06:31.271Z,99.90
2019-02-23T23:09:02.054Z,99.90
2019-02-23T23:11:32.569Z,99.90
2019-02-23T23:14:03.294Z,99.90
2019-02-23T23:16:33.864Z,99.90
2019-02-23T23:19:04.282Z,99.90
2019-02-23T23:21:34.947Z,99.90
2019-02-23T23:24:05.704Z,99.90
2019-02-23T23:26:36.484Z,99.90
2019-02-23T23:29:07.005Z,99.90
2019-02-23T23:31:37.508Z,99.90
2019-02-23T23:34:07.887Z,99.90
2019-02-23T23:36:38.686Z,99.90
2019-02-23T23:39:09.234Z,99.90
2019-02-23T23:41:39.944Z,99.90
2019-02-23T23:44:10.739Z,99.90
2019-02-23T23:46:41.484Z,99.90
2019-02-23T23:49:12.084Z,99.90
2019-02-23T23:51:42.854Z,99.90
2019-02-23T23:54:13.664Z,99.90
2019-02-23T23:56:44.412Z,99.90
2019-02-23T23:59:15.259Z,99.90
